aviador You're here:

KIXA Decoded Metar

in
Report Time2018-04-21 07:40:00
UTC Time2018-04-21 08:00:06
Flight Rules vfr VFR
WindCalm
Visibility9999 m
Phenomena:N/A
Clouds:N/A
CeilingNone
Temp01°C
Dew Point01°C (100% RH)
AAT-0.8°C
QNH1029 hPa
Raw Report
METAR KIXA 210740Z AUTO 00000KT 7SM CLR 01/01 A3040 RMK AO2=

Extra information for KIXA:More info

Social comments